sensor_id;sensor_type;location;lat;lon;timestamp;pressure;altitude;pressure_sealevel;temperature;humidity
46007;BME280;31738;50.188;8.524;2023-01-28T00:00:51;99693.88;;;3.43;87.60
46007;BME280;31738;50.188;8.524;2023-01-28T00:03:17;99698.75;;;3.46;87.74
46007;BME280;31738;50.188;8.524;2023-01-28T00:05:42;99696.31;;;3.44;87.70
46007;BME280;31738;50.188;8.524;2023-01-28T00:08:08;99688.56;;;3.43;87.73
46007;BME280;31738;50.188;8.524;2023-01-28T00:10:36;99698.56;;;3.41;87.30
46007;BME280;31738;50.188;8.524;2023-01-28T00:13:11;99700.38;;;3.40;87.20
46007;BME280;31738;50.188;8.524;2023-01-28T00:15:38;99691.00;;;3.38;87.62
46007;BME280;31738;50.188;8.524;2023-01-28T00:18:04;99692.84;;;3.37;87.32
46007;BME280;31738;50.188;8.524;2023-01-28T00:20:30;99693.03;;;3.36;87.72
46007;BME280;31738;50.188;8.524;2023-01-28T00:23:02;99692.03;;;3.30;87.72
46007;BME280;31738;50.188;8.524;2023-01-28T00:25:31;99689.38;;;3.30;87.80
46007;BME280;31738;50.188;8.524;2023-01-28T00:27:56;99693.25;;;3.28;87.66
46007;BME280;31738;50.188;8.524;2023-01-28T00:30:22;99690.00;;;3.26;87.55
46007;BME280;31738;50.188;8.524;2023-01-28T00:32:47;99694.25;;;3.27;87.64
46007;BME280;31738;50.188;8.524;2023-01-28T00:35:13;99690.19;;;3.24;87.63
46007;BME280;31738;50.188;8.524;2023-01-28T00:37:40;99691.00;;;3.25;87.62
46007;BME280;31738;50.188;8.524;2023-01-28T00:40:06;99688.53;;;3.23;87.19
46007;BME280;31738;50.188;8.524;2023-01-28T00:42:34;99695.06;;;3.21;87.41
46007;BME280;31738;50.188;8.524;2023-01-28T00:44:59;99699.94;;;3.17;87.50
46007;BME280;31738;50.188;8.524;2023-01-28T00:47:51;99696.28;;;3.12;87.78
46007;BME280;31738;50.188;8.524;2023-01-28T00:50:29;99694.66;;;3.11;87.87
46007;BME280;31738;50.188;8.524;2023-01-28T00:52:54;99691.38;;;3.09;87.68
46007;BME280;31738;50.188;8.524;2023-01-28T00:55:20;99681.81;;;3.08;87.83
46007;BME280;31738;50.188;8.524;2023-01-28T00:57:46;99685.06;;;3.10;87.67
46007;BME280;31738;50.188;8.524;2023-01-28T01:00:12;99694.66;;;3.11;88.09
46007;BME280;31738;50.188;8.524;2023-01-28T01:05:56;99696.22;;;2.86;87.59
46007;BME280;31738;50.188;8.524;2023-01-28T01:08:22;99700.09;;;2.90;88.04
46007;BME280;31738;50.188;8.524;2023-01-28T01:11:03;99693.81;;;2.91;88.17
46007;BME280;31738;50.188;8.524;2023-01-28T01:13:56;99697.88;;;2.93;87.53
46007;BME280;31738;50.188;8.524;2023-01-28T01:16:43;99697.44;;;2.90;88.00
46007;BME280;31738;50.188;8.524;2023-01-28T01:19:12;99697.06;;;2.93;87.86
46007;BME280;31738;50.188;8.524;2023-01-28T01:21:41;99692.59;;;2.93;88.17
46007;BME280;31738;50.188;8.524;2023-01-28T01:24:19;99683.22;;;2.91;87.74
46007;BME280;31738;50.188;8.524;2023-01-28T01:27:11;99681.56;;;2.90;87.56
46007;BME280;31738;50.188;8.524;2023-01-28T01:29:36;99688.09;;;2.94;88.08
46007;BME280;31738;50.188;8.524;2023-01-28T01:32:02;99690.75;;;2.94;87.54
46007;BME280;31738;50.188;8.524;2023-01-28T01:34:28;99700.94;;;2.97;87.53
46007;BME280;31738;50.188;8.524;2023-01-28T01:36:53;99705.63;;;2.95;87.54
46007;BME280;31738;50.188;8.524;2023-01-28T01:39:21;99710.31;;;2.93;87.73
46007;BME280;31738;50.188;8.524;2023-01-28T01:41:46;99706.03;;;2.92;87.67
46007;BME280;31738;50.188;8.524;2023-01-28T01:47:12;99721.50;;;2.88;87.97
46007;BME280;31738;50.188;8.524;2023-01-28T01:49:39;99719.06;;;2.87;87.95
46007;BME280;31738;50.188;8.524;2023-01-28T01:52:12;99721.31;;;2.90;87.59
46007;BME280;31738;50.188;8.524;2023-01-28T01:54:44;99723.94;;;2.90;87.58
46007;BME280;31738;50.188;8.524;2023-01-28T01:57:26;99733.94;;;2.88;87.92
46007;BME280;31738;50.188;8.524;2023-01-28T01:59:54;99732.91;;;2.89;87.95
46007;BME280;31738;50.188;8.524;2023-01-28T02:02:22;99735.81;;;2.94;88.06
46007;BME280;31738;50.188;8.524;2023-01-28T02:04:48;99738.22;;;2.89;88.11
46007;BME280;31738;50.188;8.524;2023-01-28T02:07:15;99742.72;;;2.95;87.96
46007;BME280;31738;50.188;8.524;2023-01-28T02:09:42;99733.19;;;3.00;87.77
46007;BME280;31738;50.188;8.524;2023-01-28T02:12:17;99730.53;;;3.00;87.26
46007;BME280;31738;50.188;8.524;2023-01-28T02:14:48;99729.91;;;3.05;87.34
46007;BME280;31738;50.188;8.524;2023-01-28T02:17:17;99730.13;;;3.03;87.91
46007;BME280;31738;50.188;8.524;2023-01-28T02:19:47;99729.72;;;3.06;87.62
46007;BME280;31738;50.188;8.524;2023-01-28T02:22:50;99731.75;;;3.04;87.28
46007;BME280;31738;50.188;8.524;2023-01-28T02:30:57;99726.88;;;3.08;87.93
46007;BME280;31738;50.188;8.524;2023-01-28T02:33:55;99738.06;;;3.10;87.57
46007;BME280;31738;50.188;8.524;2023-01-28T02:36:49;99740.31;;;3.06;87.11
46007;BME280;31738;50.188;8.524;2023-01-28T02:39:24;99739.28;;;3.07;86.94
46007;BME280;31738;50.188;8.524;2023-01-28T02:41:56;99731.78;;;3.11;87.27
46007;BME280;31738;50.188;8.524;2023-01-28T02:44:23;99737.88;;;3.11;87.28
46007;BME280;31738;50.188;8.524;2023-01-28T02:46:51;99736.66;;;3.14;87.04
46007;BME280;31738;50.188;8.524;2023-01-28T02:49:49;99742.38;;;3.11;87.06
46007;BME280;31738;50.188;8.524;2023-01-28T03:01:03;99743.56;;;3.08;87.22
46007;BME280;31738;50.188;8.524;2023-01-28T03:06:31;99742.16;;;3.06;87.03
46007;BME280;31738;50.188;8.524;2023-01-28T03:09:03;99745.03;;;3.11;87.01
46007;BME280;31738;50.188;8.524;2023-01-28T03:11:54;99744.38;;;3.09;87.18
46007;BME280;31738;50.188;8.524;2023-01-28T03:14:40;99744.78;;;3.06;86.82
46007;BME280;31738;50.188;8.524;2023-01-28T03:17:33;99754.38;;;3.07;87.24
46007;BME280;31738;50.188;8.524;2023-01-28T03:20:33;99759.88;;;3.05;87.39
46007;BME280;31738;50.188;8.524;2023-01-28T03:27:41;99762.31;;;3.00;87.55
46007;BME280;31738;50.188;8.524;2023-01-28T03:30:36;99769.03;;;3.03;87.51
46007;BME280;31738;50.188;8.524;2023-01-28T03:33:34;99765.16;;;2.99;86.92
46007;BME280;31738;50.188;8.524;2023-01-28T03:36:19;99770.88;;;3.02;87.07
46007;BME280;31738;50.188;8.524;2023-01-28T03:39:04;99776.13;;;2.96;87.49
46007;BME280;31738;50.188;8.524;2023-01-28T03:41:30;99771.69;;;3.03;87.41
46007;BME280;31738;50.188;8.524;2023-01-28T03:43:57;99774.97;;;3.05;87.15
46007;BME280;31738;50.188;8.524;2023-01-28T03:46:23;99778.03;;;3.08;87.25
46007;BME280;31738;50.188;8.524;2023-01-28T03:48:48;99779.88;;;3.08;86.69
46007;BME280;31738;50.188;8.524;2023-01-28T03:51:14;99783.13;;;3.10;87.05
46007;BME280;31738;50.188;8.524;2023-01-28T03:53:42;99794.97;;;3.14;86.44
46007;BME280;31738;50.188;8.524;2023-01-28T03:56:08;99784.78;;;3.11;86.96
46007;BME280;31738;50.188;8.524;2023-01-28T03:58:38;99785.16;;;3.08;86.44
46007;BME280;31738;50.188;8.524;2023-01-28T04:01:22;99789.44;;;3.09;86.91
46007;BME280;31738;50.188;8.524;2023-01-28T04:03:47;99797.41;;;3.09;86.62
46007;BME280;31738;50.188;8.524;2023-01-28T04:06:17;99790.28;;;3.09;86.58
46007;BME280;31738;50.188;8.524;2023-01-28T04:09:01;99782.28;;;3.03;86.66
46007;BME280;31738;50.188;8.524;2023-01-28T04:11:50;99790.66;;;3.06;86.37
46007;BME280;31738;50.188;8.524;2023-01-28T04:14:25;99795.34;;;3.04;86.55
46007;BME280;31738;50.188;8.524;2023-01-28T04:17:01;99796.78;;;3.07;86.41
46007;BME280;31738;50.188;8.524;2023-01-28T04:19:28;99796.78;;;3.07;86.39
46007;BME280;31738;50.188;8.524;2023-01-28T04:21:55;99793.91;;;3.08;86.23
46007;BME280;31738;50.188;8.524;2023-01-28T04:24:23;99800.69;;;3.11;86.22
46007;BME280;31738;50.188;8.524;2023-01-28T04:26:48;99805.78;;;3.12;86.05
46007;BME280;31738;50.188;8.524;2023-01-28T04:29:14;99806.38;;;3.14;85.58
46007;BME280;31738;50.188;8.524;2023-01-28T04:31:40;99814.31;;;3.14;85.62
46007;BME280;31738;50.188;8.524;2023-01-28T04:34:38;99814.13;;;3.09;85.77
46007;BME280;31738;50.188;8.524;2023-01-28T04:37:42;99816.97;;;3.08;86.03
46007;BME280;31738;50.188;8.524;2023-01-28T04:40:20;99815.31;;;3.07;85.74
46007;BME280;31738;50.188;8.524;2023-01-28T04:42:55;99806.38;;;3.08;85.95
46007;BME280;31738;50.188;8.524;2023-01-28T04:45:29;99815.13;;;3.02;85.59
46007;BME280;31738;50.188;8.524;2023-01-28T04:48:15;99813.69;;;3.06;85.62
46007;BME280;31738;50.188;8.524;2023-01-28T04:51:27;99818.56;;;3.02;85.55
46007;BME280;31738;50.188;8.524;2023-01-28T04:54:24;99821.41;;;3.01;85.47
46007;BME280;31738;50.188;8.524;2023-01-28T04:56:52;99824.50;;;3.04;85.67
46007;BME280;31738;50.188;8.524;2023-01-28T04:59:18;99816.16;;;3.07;85.40
46007;BME280;31738;50.188;8.524;2023-01-28T05:01:44;99818.59;;;3.09;85.37
46007;BME280;31738;50.188;8.524;2023-01-28T05:04:10;99821.88;;;3.11;85.13
46007;BME280;31738;50.188;8.524;2023-01-28T05:06:37;99822.28;;;3.08;85.05
46007;BME280;31738;50.188;8.524;2023-01-28T05:09:12;99829.19;;;3.09;85.32
46007;BME280;31738;50.188;8.524;2023-01-28T05:12:02;99822.88;;;3.10;85.25
46007;BME280;31738;50.188;8.524;2023-01-28T05:15:09;99829.56;;;2.99;85.56
46007;BME280;31738;50.188;8.524;2023-01-28T05:17:34;99837.13;;;3.02;85.53
46007;BME280;31738;50.188;8.524;2023-01-28T05:20:00;99827.97;;;3.05;85.51
46007;BME280;31738;50.188;8.524;2023-01-28T05:22:27;99833.28;;;3.05;85.22
46007;BME280;31738;50.188;8.524;2023-01-28T05:25:19;99828.38;;;3.02;85.23
46007;BME280;31738;50.188;8.524;2023-01-28T05:27:51;99834.25;;;3.04;85.15
46007;BME280;31738;50.188;8.524;2023-01-28T05:30:18;99833.47;;;3.03;85.29
46007;BME280;31738;50.188;8.524;2023-01-28T05:36:09;99849.34;;;2.97;84.97
46007;BME280;31738;50.188;8.524;2023-01-28T05:38:35;99850.16;;;2.97;85.14
46007;BME280;31738;50.188;8.524;2023-01-28T05:41:01;99857.28;;;2.97;85.07
46007;BME280;31738;50.188;8.524;2023-01-28T05:43:30;99863.81;;;3.01;85.10
46007;BME280;31738;50.188;8.524;2023-01-28T05:46:17;99865.47;;;3.02;85.28
46007;BME280;31738;50.188;8.524;2023-01-28T05:49:01;99866.47;;;3.01;84.75
46007;BME280;31738;50.188;8.524;2023-01-28T05:51:45;99865.44;;;2.95;85.25
46007;BME280;31738;50.188;8.524;2023-01-28T05:54:15;99860.56;;;2.99;84.77
46007;BME280;31738;50.188;8.524;2023-01-28T05:56:41;99858.50;;;3.01;85.07
46007;BME280;31738;50.188;8.524;2023-01-28T06:02:52;99870.91;;;2.94;84.95
46007;BME280;31738;50.188;8.524;2023-01-28T06:05:20;99873.19;;;2.97;85.06
46007;BME280;31738;50.188;8.524;2023-01-28T06:07:46;99876.47;;;2.99;84.76
46007;BME280;31738;50.188;8.524;2023-01-28T06:10:13;99886.66;;;3.02;84.69
46007;BME280;31738;50.188;8.524;2023-01-28T06:12:40;99891.13;;;3.01;84.73
46007;BME280;31738;50.188;8.524;2023-01-28T06:15:35;99899.03;;;2.95;84.85
46007;BME280;31738;50.188;8.524;2023-01-28T06:18:07;99893.75;;;2.95;85.03
46007;BME280;31738;50.188;8.524;2023-01-28T06:20:34;99896.00;;;2.98;84.75
46007;BME280;31738;50.188;8.524;2023-01-28T06:23:00;99900.91;;;3.01;84.56
46007;BME280;31738;50.188;8.524;2023-01-28T06:25:25;99899.91;;;3.02;84.62
46007;BME280;31738;50.188;8.524;2023-01-28T06:27:52;99899.28;;;3.00;84.52
46007;BME280;31738;50.188;8.524;2023-01-28T06:30:17;99904.59;;;3.00;84.75
46007;BME280;31738;50.188;8.524;2023-01-28T06:32:43;99900.31;;;2.99;84.59
46007;BME280;31738;50.188;8.524;2023-01-28T06:35:09;99914.75;;;2.96;84.72
46007;BME280;31738;50.188;8.524;2023-01-28T06:37:35;99917.19;;;2.98;84.48
46007;BME280;31738;50.188;8.524;2023-01-28T06:40:01;99905.97;;;2.96;84.45
46007;BME280;31738;50.188;8.524;2023-01-28T06:42:27;99914.75;;;2.96;84.72
46007;BME280;31738;50.188;8.524;2023-01-28T06:44:55;99911.91;;;2.98;84.09
46007;BME280;31738;50.188;8.524;2023-01-28T06:47:21;99920.03;;;2.96;84.31
46007;BME280;31738;50.188;8.524;2023-01-28T06:49:46;99919.41;;;2.94;84.26
46007;BME280;31738;50.188;8.524;2023-01-28T06:52:11;99920.25;;;2.95;84.27
46007;BME280;31738;50.188;8.524;2023-01-28T06:54:37;99920.88;;;2.97;83.96
46007;BME280;31738;50.188;8.524;2023-01-28T06:57:02;99922.50;;;2.98;83.92
46007;BME280;31738;50.188;8.524;2023-01-28T06:59:28;99919.22;;;2.96;84.18
46007;BME280;31738;50.188;8.524;2023-01-28T07:01:53;99925.53;;;2.95;84.19
46007;BME280;31738;50.188;8.524;2023-01-28T07:08:32;99930.56;;;2.83;84.25
46007;BME280;31738;50.188;8.524;2023-01-28T07:10:58;99931.00;;;2.87;84.03
46007;BME280;31738;50.188;8.524;2023-01-28T07:13:25;99937.31;;;2.86;84.54
46007;BME280;31738;50.188;8.524;2023-01-28T07:15:50;99936.91;;;2.89;83.96
46007;BME280;31738;50.188;8.524;2023-01-28T07:18:16;99938.16;;;2.93;84.01
46007;BME280;31738;50.188;8.524;2023-01-28T07:20:41;99935.31;;;2.94;84.25
46007;BME280;31738;50.188;8.524;2023-01-28T07:26:56;99955.84;;;2.86;83.90
46007;BME280;31738;50.188;8.524;2023-01-28T07:29:22;99951.19;;;2.88;83.85
46007;BME280;31738;50.188;8.524;2023-01-28T07:31:47;99953.84;;;2.94;83.81
46007;BME280;31738;50.188;8.524;2023-01-28T07:34:13;99959.97;;;2.95;83.81
46007;BME280;31738;50.188;8.524;2023-01-28T07:36:38;99954.69;;;2.95;83.47
46007;BME280;31738;50.188;8.524;2023-01-28T07:39:04;99953.66;;;2.96;83.63
46007;BME280;31738;50.188;8.524;2023-01-28T07:41:31;99961.59;;;2.96;83.33
46007;BME280;31738;50.188;8.524;2023-01-28T07:44:04;99959.97;;;2.95;83.53
46007;BME280;31738;50.188;8.524;2023-01-28T07:46:29;99965.91;;;2.97;83.83
46007;BME280;31738;50.188;8.524;2023-01-28T07:48:54;99956.31;;;2.96;83.28
46007;BME280;31738;50.188;8.524;2023-01-28T07:51:20;99957.78;;;2.98;83.33
46007;BME280;31738;50.188;8.524;2023-01-28T07:53:45;99965.72;;;2.98;83.21
46007;BME280;31738;50.188;8.524;2023-01-28T07:56:11;99973.88;;;2.97;83.29
46007;BME280;31738;50.188;8.524;2023-01-28T07:58:36;99975.88;;;2.95;83.18
46007;BME280;31738;50.188;8.524;2023-01-28T08:01:03;99975.50;;;2.98;83.45
46007;BME280;31738;50.188;8.524;2023-01-28T08:03:29;99983.06;;;3.01;83.39
46007;BME280;31738;50.188;8.524;2023-01-28T08:05:55;99973.09;;;3.03;83.13
46007;BME280;31738;50.188;8.524;2023-01-28T08:08:22;99979.03;;;3.05;82.87
46007;BME280;31738;50.188;8.524;2023-01-28T08:10:48;99987.16;;;3.03;82.98
46007;BME280;31738;50.188;8.524;2023-01-28T08:13:15;99984.06;;;3.00;82.96
46007;BME280;31738;50.188;8.524;2023-01-28T08:15:41;99992.66;;;3.02;83.27
46007;BME280;31738;50.188;8.524;2023-01-28T08:18:08;99996.31;;;3.01;82.84
46007;BME280;31738;50.188;8.524;2023-01-28T08:20:42;99994.25;;;2.96;82.59
46007;BME280;31738;50.188;8.524;2023-01-28T08:23:54;99994.19;;;2.90;82.92
46007;BME280;31738;50.188;8.524;2023-01-28T08:26:24;100004.00;;;2.96;82.88
46007;BME280;31738;50.188;8.524;2023-01-28T08:28:53;100001.19;;;2.97;82.44
46007;BME280;31738;50.188;8.524;2023-01-28T08:31:46;99998.72;;;2.96;82.50
46007;BME280;31738;50.188;8.524;2023-01-28T08:34:11;99999.34;;;2.98;82.64
46007;BME280;31738;50.188;8.524;2023-01-28T08:36:37;100001.59;;;3.01;82.53
46007;BME280;31738;50.188;8.524;2023-01-28T08:39:05;100003.66;;;2.99;82.60
46007;BME280;31738;50.188;8.524;2023-01-28T08:41:31;100005.66;;;2.97;82.16
46007;BME280;31738;50.188;8.524;2023-01-28T08:43:58;99999.72;;;2.95;82.20
46007;BME280;31738;50.188;8.524;2023-01-28T08:46:24;100003.66;;;2.99;81.67
46007;BME280;31738;50.188;8.524;2023-01-28T08:48:50;100014.25;;;2.99;81.62
46007;BME280;31738;50.188;8.524;2023-01-28T08:51:15;100025.47;;;3.01;81.58
46007;BME280;31738;50.188;8.524;2023-01-28T08:53:41;100024.47;;;3.02;81.80
46007;BME280;31738;50.188;8.524;2023-01-28T08:56:12;100023.19;;;2.98;81.57
46007;BME280;31738;50.188;8.524;2023-01-28T09:01:20;100018.66;;;2.92;81.75
46007;BME280;31738;50.188;8.524;2023-01-28T09:03:45;100022.56;;;2.96;81.60
46007;BME280;31738;50.188;8.524;2023-01-28T09:06:11;100022.81;;;3.01;81.83
46007;BME280;31738;50.188;8.524;2023-01-28T09:08:36;100022.41;;;3.04;81.25
46007;BME280;31738;50.188;8.524;2023-01-28T09:11:02;100038.31;;;3.04;81.30
46007;BME280;31738;50.188;8.524;2023-01-28T09:13:27;100034.69;;;3.05;81.26
46007;BME280;31738;50.188;8.524;2023-01-28T09:15:53;100027.72;;;3.04;81.29
46007;BME280;31738;50.188;8.524;2023-01-28T09:18:19;100031.00;;;3.06;81.10
46007;BME280;31738;50.188;8.524;2023-01-28T09:20:44;100040.38;;;3.02;80.96
46007;BME280;31738;50.188;8.524;2023-01-28T09:23:10;100040.97;;;3.04;81.00
46007;BME280;31738;50.188;8.524;2023-01-28T09:25:36;100047.09;;;3.04;81.00
46007;BME280;31738;50.188;8.524;2023-01-28T09:28:02;100047.72;;;3.06;81.29
46007;BME280;31738;50.188;8.524;2023-01-28T09:30:27;100055.06;;;3.04;80.63
46007;BME280;31738;50.188;8.524;2023-01-28T09:32:54;100061.56;;;3.02;80.36
46007;BME280;31738;50.188;8.524;2023-01-28T09:35:20;100059.53;;;3.04;80.72
46007;BME280;31738;50.188;8.524;2023-01-28T09:37:46;100056.69;;;3.05;80.35
46007;BME280;31738;50.188;8.524;2023-01-28T09:40:34;100075.63;;;3.02;79.14
46007;BME280;31738;50.188;8.524;2023-01-28T09:45:54;100073.41;;;3.06;80.54
46007;BME280;31738;50.188;8.524;2023-01-28T09:48:30;100073.41;;;3.06;79.96
46007;BME280;31738;50.188;8.524;2023-01-28T09:50:58;100080.34;;;3.07;80.79
46007;BME280;31738;50.188;8.524;2023-01-28T09:53:31;100082.41;;;3.11;80.29
46007;BME280;31738;50.188;8.524;2023-01-28T09:56:08;100087.50;;;3.13;80.52
46007;BME280;31738;50.188;8.524;2023-01-28T09:58:36;100088.53;;;3.12;80.14
46007;BME280;31738;50.188;8.524;2023-01-28T10:12:24;100097.91;;;3.08;80.35
46007;BME280;31738;50.188;8.524;2023-01-28T10:17:39;100106.84;;;3.07;80.31
46007;BME280;31738;50.188;8.524;2023-01-28T10:22:38;100097.50;;;3.11;79.90
46007;BME280;31738;50.188;8.524;2023-01-28T10:25:14;100105.09;;;3.14;79.97
46007;BME280;31738;50.188;8.524;2023-01-28T10:27:42;100104.44;;;3.12;79.95
46007;BME280;31738;50.188;8.524;2023-01-28T10:30:29;100111.00;;;3.16;79.65
46007;BME280;31738;50.188;8.524;2023-01-28T10:33:03;100098.75;;;3.15;80.22
46007;BME280;31738;50.188;8.524;2023-01-28T10:35:34;100100.56;;;3.14;79.57
46007;BME280;31738;50.188;8.524;2023-01-28T10:38:05;100096.75;;;3.17;80.08
46007;BME280;31738;50.188;8.524;2023-01-28T10:40:32;100094.69;;;3.19;79.40
46007;BME280;31738;50.188;8.524;2023-01-28T10:42:57;100109.34;;;3.15;79.49
46007;BME280;31738;50.188;8.524;2023-01-28T10:45:41;100111.38;;;3.13;79.20
46007;BME280;31738;50.188;8.524;2023-01-28T10:48:20;100112.13;;;3.07;79.10
46007;BME280;31738;50.188;8.524;2023-01-28T10:50:59;100119.09;;;3.08;79.16
46007;BME280;31738;50.188;8.524;2023-01-28T10:53:40;100115.44;;;3.09;79.45
46007;BME280;31738;50.188;8.524;2023-01-28T10:58:44;100113.41;;;3.11;78.72
46007;BME280;31738;50.188;8.524;2023-01-28T11:01:11;100117.69;;;3.12;79.22
46007;BME280;31738;50.188;8.524;2023-01-28T11:03:37;100114.22;;;3.11;78.90
46007;BME280;31738;50.188;8.524;2023-01-28T11:06:05;100114.22;;;3.11;79.10
46007;BME280;31738;50.188;8.524;2023-01-28T11:08:30;100124.44;;;3.14;78.55
46007;BME280;31738;50.188;8.524;2023-01-28T11:11:13;100119.09;;;3.08;78.77
46007;BME280;31738;50.188;8.524;2023-01-28T11:13:50;100126.63;;;2.83;78.89
46007;BME280;31738;50.188;8.524;2023-01-28T11:16:18;100130.72;;;2.86;78.87
46007;BME280;31738;50.188;8.524;2023-01-28T11:18:52;100125.03;;;2.89;78.81
46007;BME280;31738;50.188;8.524;2023-01-28T11:21:20;100113.66;;;2.95;78.86
46007;BME280;31738;50.188;8.524;2023-01-28T11:23:53;100126.06;;;2.88;76.97
46007;BME280;31738;50.188;8.524;2023-01-28T11:26:26;100123.03;;;2.91;78.82
46007;BME280;31738;50.188;8.524;2023-01-28T11:28:52;100123.44;;;2.94;78.59
46007;BME280;31738;50.188;8.524;2023-01-28T11:31:20;100113.94;;;3.00;78.67
46007;BME280;31738;50.188;8.524;2023-01-28T11:34:01;100120.66;;;3.02;78.19
46007;BME280;31738;50.188;8.524;2023-01-28T11:36:31;100108.25;;;3.03;78.46
46007;BME280;31738;50.188;8.524;2023-01-28T11:38:59;100113.34;;;3.04;77.82
46007;BME280;31738;50.188;8.524;2023-01-28T11:41:34;100119.88;;;3.02;78.13
46007;BME280;31738;50.188;8.524;2023-01-28T11:44:20;100111.28;;;3.00;78.35
46007;BME280;31738;50.188;8.524;2023-01-28T11:47:06;100109.25;;;3.02;78.41
46007;BME280;31738;50.188;8.524;2023-01-28T11:52:28;100116.31;;;2.95;76.74
46007;BME280;31738;50.188;8.524;2023-01-28T11:55:27;100108.13;;;2.90;78.26
46007;BME280;31738;50.188;8.524;2023-01-28T12:01:01;100125.41;;;2.86;77.50
46007;BME280;31738;50.188;8.524;2023-01-28T12:18:17;100116.44;;;2.66;76.47
46007;BME280;31738;50.188;8.524;2023-01-28T12:21:03;100117.28;;;2.66;76.51
46007;BME280;31738;50.188;8.524;2023-01-28T12:26:51;100106.13;;;2.71;76.47
46007;BME280;31738;50.188;8.524;2023-01-28T12:41:02;100101.00;;;2.90;75.87
46007;BME280;31738;50.188;8.524;2023-01-28T12:43:56;100115.69;;;2.93;74.19
46007;BME280;31738;50.188;8.524;2023-01-28T12:46:52;100117.59;;;2.99;74.55
46007;BME280;31738;50.188;8.524;2023-01-28T12:49:39;100109.25;;;3.02;75.19
46007;BME280;31738;50.188;8.524;2023-01-28T12:52:17;100106.44;;;3.03;74.65
46007;BME280;31738;50.188;8.524;2023-01-28T12:55:12;100097.25;;;3.06;74.31
46007;BME280;31738;50.188;8.524;2023-01-28T12:57:40;100099.84;;;2.99;74.49
46007;BME280;31738;50.188;8.524;2023-01-28T13:00:25;100118.22;;;3.01;74.13
46007;BME280;31738;50.188;8.524;2023-01-28T13:03:07;100108.44;;;3.01;74.33
46007;BME280;31738;50.188;8.524;2023-01-28T13:05:43;100116.19;;;3.03;74.02
46007;BME280;31738;50.188;8.524;2023-01-28T13:08:14;100122.31;;;3.03;73.63
46007;BME280;31738;50.188;8.524;2023-01-28T13:10:43;100133.72;;;3.04;73.38
46007;BME280;31738;50.188;8.524;2023-01-28T13:13:29;100133.34;;;3.07;73.40
46007;BME280;31738;50.188;8.524;2023-01-28T13:15:56;100138.44;;;3.08;73.35
46007;BME280;31738;50.188;8.524;2023-01-28T13:21:03;100146.78;;;3.05;71.79
46007;BME280;31738;50.188;8.524;2023-01-28T13:26:23;100154.41;;;3.15;72.09
46007;BME280;31738;50.188;8.524;2023-01-28T13:28:53;100171.34;;;3.14;72.21
46007;BME280;31738;50.188;8.524;2023-01-28T13:31:21;100172.97;;;3.15;72.38
46007;BME280;31738;50.188;8.524;2023-01-28T13:37:00;100169.31;;;3.16;72.61
46007;BME280;31738;50.188;8.524;2023-01-28T13:39:23;100171.72;;;3.11;72.44
46007;BME280;31738;50.188;8.524;2023-01-28T13:42:10;100180.56;;;2.97;72.36
46007;BME280;31738;50.188;8.524;2023-01-28T13:44:44;100171.50;;;2.91;71.99
46007;BME280;31738;50.188;8.524;2023-01-28T13:50:40;100168.88;;;2.91;71.37
46007;BME280;31738;50.188;8.524;2023-01-28T13:52:44;100180.41;;;2.84;71.72
46007;BME280;31738;50.188;8.524;2023-01-28T13:55:18;100183.50;;;2.87;71.16
46007;BME280;31738;50.188;8.524;2023-01-28T14:07:01;100186.84;;;2.96;72.35
46007;BME280;31738;50.188;8.524;2023-01-28T14:12:19;100176.88;;;2.98;72.36
46007;BME280;31738;50.188;8.524;2023-01-28T14:17:50;100191.53;;;2.73;72.53
46007;BME280;31738;50.188;8.524;2023-01-28T14:20:19;100180.56;;;2.76;72.49
46007;BME280;31738;50.188;8.524;2023-01-28T14:22:47;100168.19;;;2.83;72.40
46007;BME280;31738;50.188;8.524;2023-01-28T14:25:22;100173.94;;;2.86;72.33
46007;BME280;31738;50.188;8.524;2023-01-28T14:27:53;100176.78;;;2.85;72.54
46007;BME280;31738;50.188;8.524;2023-01-28T14:30:56;100184.34;;;2.88;72.62
46007;BME280;31738;50.188;8.524;2023-01-28T14:33:26;100181.31;;;2.91;72.73
46007;BME280;31738;50.188;8.524;2023-01-28T14:35:52;100177.25;;;2.95;72.62
46007;BME280;31738;50.188;8.524;2023-01-28T14:38:20;100172.41;;;2.98;72.25
46007;BME280;31738;50.188;8.524;2023-01-28T14:40:51;100177.34;;;3.01;71.85
46007;BME280;31738;50.188;8.524;2023-01-28T14:43:24;100179.81;;;3.03;71.93
46007;BME280;31738;50.188;8.524;2023-01-28T14:46:46;100170.16;;;2.95;70.28
46007;BME280;31738;50.188;8.524;2023-01-28T14:49:37;100171.31;;;2.93;72.47
46007;BME280;31738;50.188;8.524;2023-01-28T14:52:15;100166.28;;;2.98;71.68
46007;BME280;31738;50.188;8.524;2023-01-28T14:57:39;100157.97;;;3.01;71.79
46007;BME280;31738;50.188;8.524;2023-01-28T15:00:28;100158.97;;;3.00;71.77
46007;BME280;31738;50.188;8.524;2023-01-28T15:02:58;100176.13;;;3.04;71.70
46007;BME280;31738;50.188;8.524;2023-01-28T15:05:28;100177.16;;;3.03;71.99
46007;BME280;31738;50.188;8.524;2023-01-28T15:08:02;100179.81;;;3.03;71.69
46007;BME280;31738;50.188;8.524;2023-01-28T15:10:35;100174.50;;;3.03;72.35
46007;BME280;31738;50.188;8.524;2023-01-28T15:13:09;100167.94;;;2.99;72.03
46007;BME280;31738;50.188;8.524;2023-01-28T15:15:45;100167.31;;;2.97;71.88
46007;BME280;31738;50.188;8.524;2023-01-28T15:18:20;100174.13;;;2.85;69.82
46007;BME280;31738;50.188;8.524;2023-01-28T15:20:54;100161.63;;;2.79;71.26
46007;BME280;31738;50.188;8.524;2023-01-28T15:23:27;100167.41;;;2.68;70.92
46007;BME280;31738;50.188;8.524;2023-01-28T15:25:54;100165.13;;;2.65;71.65
46007;BME280;31738;50.188;8.524;2023-01-28T15:28:29;100160.66;;;2.65;71.38
46007;BME280;31738;50.188;8.524;2023-01-28T15:30:55;100166.31;;;2.62;70.65
46007;BME280;31738;50.188;8.524;2023-01-28T15:33:22;100167.16;;;2.63;70.67
46007;BME280;31738;50.188;8.524;2023-01-28T15:35:50;100158.19;;;2.64;70.47
46007;BME280;31738;50.188;8.524;2023-01-28T15:38:16;100159.84;;;2.65;70.51
46007;BME280;31738;50.188;8.524;2023-01-28T15:40:44;100168.78;;;2.64;70.57
46007;BME280;31738;50.188;8.524;2023-01-28T15:43:20;100179.56;;;2.62;70.31
46007;BME280;31738;50.188;8.524;2023-01-28T15:45:47;100190.34;;;2.61;70.34
46007;BME280;31738;50.188;8.524;2023-01-28T15:48:14;100179.56;;;2.62;70.47